createdAt,value
2023-04-26T00:00:09.715Z,9.98
2023-04-26T00:02:37.612Z,9.96
2023-04-26T00:05:09.972Z,9.93
2023-04-26T00:07:39.035Z,9.87
2023-04-26T00:10:07.501Z,9.83
2023-04-26T00:12:36.865Z,9.78
2023-04-26T00:15:05.413Z,9.69
2023-04-26T00:17:33.237Z,9.71
2023-04-26T00:20:02.014Z,9.67
2023-04-26T00:22:31.378Z,9.63
2023-04-26T00:24:59.127Z,9.60
2023-04-26T00:27:27.648Z,9.56
2023-04-26T00:29:55.409Z,9.54
2023-04-26T00:32:23.206Z,9.50
2023-04-26T00:34:51.506Z,9.47
2023-04-26T00:37:19.290Z,9.44
2023-04-26T00:39:48.430Z,9.41
2023-04-26T00:42:16.695Z,9.37
2023-04-26T00:44:44.460Z,9.33
2023-04-26T00:47:12.282Z,9.32
2023-04-26T00:49:40.661Z,9.30
2023-04-26T00:52:08.967Z,9.27
2023-04-26T00:54:36.780Z,9.25
2023-04-26T00:57:07.790Z,9.25
2023-04-26T00:59:36.429Z,9.21
2023-04-26T01:02:04.400Z,9.20
2023-04-26T01:04:33.723Z,9.18
2023-04-26T01:07:03.040Z,9.11
2023-04-26T01:09:33.830Z,9.16
2023-04-26T01:12:01.972Z,9.07
2023-04-26T01:14:31.564Z,9.08
2023-04-26T01:17:00.157Z,9.03
2023-04-26T01:19:28.009Z,9.00
2023-04-26T01:21:56.236Z,8.97
2023-04-26T01:24:26.461Z,8.95
2023-04-26T01:26:54.230Z,8.90
2023-04-26T01:29:24.273Z,8.86
2023-04-26T01:31:52.403Z,8.83
2023-04-26T01:34:20.217Z,8.80
2023-04-26T01:36:48.018Z,8.78
2023-04-26T01:39:16.285Z,8.74
2023-04-26T01:41:45.523Z,8.72
2023-04-26T01:44:13.305Z,8.68
2023-04-26T01:46:42.367Z,8.64
2023-04-26T01:49:10.211Z,8.63
2023-04-26T01:51:38.024Z,8.62
2023-04-26T01:54:07.173Z,8.58
2023-04-26T01:56:34.952Z,8.56
2023-04-26T01:59:04.270Z,8.56
2023-04-26T02:01:32.485Z,8.52
2023-04-26T02:04:00.302Z,8.51
2023-04-26T02:06:28.105Z,8.48
2023-04-26T02:08:56.881Z,8.46
2023-04-26T02:11:24.750Z,8.44
2023-04-26T02:13:52.768Z,8.42
2023-04-26T02:16:22.980Z,8.40
2023-04-26T02:18:51.052Z,8.37
2023-04-26T02:21:19.289Z,8.34
2023-04-26T02:23:47.608Z,8.30
2023-04-26T02:26:16.223Z,8.27
2023-04-26T02:28:44.005Z,8.24
2023-04-26T02:31:12.843Z,8.22
2023-04-26T02:33:42.044Z,8.21
2023-04-26T02:36:10.085Z,8.19
2023-04-26T02:38:39.035Z,8.17
2023-04-26T02:41:06.807Z,8.15
2023-04-26T02:43:34.646Z,8.14
2023-04-26T02:46:02.890Z,8.12
2023-04-26T02:48:30.723Z,8.11
2023-04-26T02:50:59.911Z,8.09
2023-04-26T02:53:28.313Z,8.06
2023-04-26T02:55:56.130Z,8.03
2023-04-26T02:58:24.001Z,8.01
2023-04-26T03:00:52.606Z,7.99
2023-04-26T03:03:20.540Z,7.96
2023-04-26T03:05:48.430Z,7.95
2023-04-26T03:08:18.400Z,7.95
2023-04-26T03:10:46.617Z,7.92
2023-04-26T03:13:15.161Z,7.91
2023-04-26T03:15:47.205Z,7.91
2023-04-26T03:18:15.005Z,7.87
2023-04-26T03:20:43.613Z,7.84
2023-04-26T03:23:11.964Z,7.82
2023-04-26T03:25:41.201Z,7.80
2023-04-26T03:28:08.958Z,7.75
2023-04-26T03:30:37.270Z,7.73
2023-04-26T03:33:05.158Z,7.71
2023-04-26T03:35:32.981Z,7.69
2023-04-26T03:38:01.397Z,7.66
2023-04-26T03:40:29.167Z,7.65
2023-04-26T03:42:58.303Z,7.64
2023-04-26T03:45:27.431Z,7.61
2023-04-26T03:47:55.410Z,7.60
2023-04-26T03:50:23.537Z,7.58
2023-04-26T03:52:51.990Z,7.57
2023-04-26T03:55:19.826Z,7.55
2023-04-26T03:57:47.813Z,7.54
2023-04-26T04:00:17.915Z,7.53
2023-04-26T04:02:46.162Z,7.51
2023-04-26T04:05:14.339Z,7.51
2023-04-26T04:07:43.325Z,7.48
2023-04-26T04:10:11.836Z,7.47
2023-04-26T04:12:39.647Z,7.46
2023-04-26T04:15:08.995Z,7.44
2023-04-26T04:17:38.912Z,7.44
2023-04-26T04:20:09.349Z,7.41
2023-04-26T04:22:39.472Z,7.41
2023-04-26T04:25:08.047Z,7.39
2023-04-26T04:27:37.395Z,7.39
2023-04-26T04:30:07.424Z,7.39
2023-04-26T04:32:35.506Z,7.39
2023-04-26T04:35:05.853Z,7.41
2023-04-26T04:37:34.789Z,7.40
2023-04-26T04:40:02.738Z,7.38
2023-04-26T04:42:31.131Z,7.42
2023-04-26T04:44:59.785Z,7.51
2023-04-26T04:47:27.615Z,7.59
2023-04-26T04:49:56.037Z,7.67
2023-04-26T04:52:25.185Z,7.75
2023-04-26T04:54:52.947Z,7.82
2023-04-26T04:57:21.253Z,7.85
2023-04-26T04:59:49.046Z,7.86
2023-04-26T05:02:17.022Z,7.87
2023-04-26T05:04:45.091Z,7.89
2023-04-26T05:07:15.492Z,7.89
2023-04-26T05:09:44.753Z,7.90
2023-04-26T05:12:13.222Z,7.91
2023-04-26T05:14:41.299Z,7.91
2023-04-26T05:17:09.071Z,7.92
2023-04-26T05:19:37.658Z,7.92
2023-04-26T05:22:05.456Z,7.94
2023-04-26T05:24:33.276Z,7.95
2023-04-26T05:27:04.632Z,7.97
2023-04-26T05:29:32.465Z,8.01
2023-04-26T05:32:00.306Z,8.04
2023-04-26T05:34:28.505Z,8.07
2023-04-26T05:36:56.303Z,8.09
2023-04-26T05:39:24.076Z,8.10
2023-04-26T05:41:52.696Z,8.12
2023-04-26T05:44:21.891Z,8.15
2023-04-26T05:46:49.719Z,8.17
2023-04-26T05:49:17.789Z,8.20
2023-04-26T05:51:45.584Z,8.25
2023-04-26T05:54:13.354Z,8.27
2023-04-26T05:56:41.759Z,8.31
2023-04-26T05:59:09.582Z,8.36
2023-04-26T06:01:38.726Z,8.42
2023-04-26T06:04:07.986Z,8.45
2023-04-26T06:06:36.044Z,8.55
2023-04-26T06:09:04.447Z,8.57
2023-04-26T06:11:32.792Z,8.63
2023-04-26T06:14:00.572Z,8.67
2023-04-26T06:16:28.405Z,8.72
2023-04-26T06:18:58.263Z,8.80
2023-04-26T06:21:26.372Z,8.88
2023-04-26T06:23:54.478Z,8.95
2023-04-26T06:26:23.117Z,9.04
2023-04-26T06:28:51.515Z,9.12
2023-04-26T06:31:21.738Z,9.19
2023-04-26T06:33:50.488Z,9.25
2023-04-26T06:36:19.834Z,9.33
2023-04-26T06:38:47.691Z,9.38
2023-04-26T06:41:15.967Z,9.44
2023-04-26T06:43:43.801Z,9.47
2023-04-26T06:46:11.645Z,9.52
2023-04-26T06:48:40.082Z,9.57
2023-04-26T06:51:08.510Z,9.56
2023-04-26T06:53:37.911Z,9.68
2023-04-26T06:56:06.575Z,9.70
2023-04-26T06:58:34.440Z,9.74
2023-04-26T07:01:02.584Z,9.78
2023-04-26T07:03:31.405Z,9.82
2023-04-26T07:05:59.354Z,9.86
2023-04-26T07:08:27.119Z,9.91
2023-04-26T07:10:56.404Z,9.97
2023-04-26T07:13:24.210Z,10.01
2023-04-26T07:15:52.277Z,10.06
2023-04-26T07:18:20.732Z,10.11
2023-04-26T07:20:49.133Z,10.14
2023-04-26T07:23:17.016Z,10.17
2023-04-26T07:25:45.500Z,10.21
2023-04-26T07:28:14.683Z,10.24
2023-04-26T07:30:42.801Z,10.28
2023-04-26T07:33:11.381Z,10.32
2023-04-26T07:35:39.429Z,10.35
2023-04-26T07:38:07.285Z,10.38
2023-04-26T07:40:35.681Z,10.44
2023-04-26T07:43:03.596Z,10.47
2023-04-26T07:45:33.706Z,10.51
2023-04-26T07:48:02.126Z,10.55
2023-04-26T07:50:30.001Z,10.61
2023-04-26T07:52:57.882Z,10.67
2023-04-26T07:55:27.553Z,10.74
2023-04-26T07:57:55.438Z,10.83
2023-04-26T08:00:23.484Z,10.91
2023-04-26T08:02:53.804Z,10.99
2023-04-26T08:05:22.249Z,11.02
2023-04-26T08:07:50.492Z,11.09
2023-04-26T08:10:18.681Z,11.17
2023-04-26T08:12:46.520Z,11.26
2023-04-26T08:15:14.426Z,11.35
2023-04-26T08:17:42.710Z,11.44
2023-04-26T08:20:13.040Z,11.55
2023-04-26T08:22:40.854Z,11.64
2023-04-26T08:25:09.851Z,11.72
2023-04-26T08:27:37.714Z,11.81
2023-04-26T08:30:06.375Z,11.89
2023-04-26T08:32:35.661Z,11.99
2023-04-26T08:35:03.506Z,12.10
2023-04-26T08:37:32.663Z,12.22
2023-04-26T08:40:00.649Z,12.29
2023-04-26T08:42:29.527Z,12.13
2023-04-26T08:45:01.905Z,12.27
2023-04-26T08:47:35.108Z,12.38
2023-04-26T08:50:04.924Z,12.41
2023-04-26T08:52:34.115Z,12.52
2023-04-26T08:55:02.169Z,12.53
2023-04-26T08:57:33.681Z,12.66
2023-04-26T09:00:05.656Z,12.82
2023-04-26T09:02:34.917Z,12.87
2023-04-26T09:05:03.300Z,12.95
2023-04-26T09:07:33.865Z,12.93
2023-04-26T09:10:06.927Z,12.91
2023-04-26T09:12:34.862Z,12.98
2023-04-26T09:15:04.023Z,13.01
2023-04-26T09:17:34.727Z,13.06
2023-04-26T09:20:07.995Z,13.11
2023-04-26T09:22:38.073Z,12.99
2023-04-26T09:25:08.490Z,12.89
2023-04-26T09:27:38.655Z,12.78
2023-04-26T09:30:07.890Z,12.88
2023-04-26T09:32:47.703Z,12.95
2023-04-26T09:35:23.892Z,12.88
2023-04-26T09:38:03.304Z,12.93
2023-04-26T09:40:36.896Z,12.95
2023-04-26T09:43:06.165Z,12.94
2023-04-26T09:45:43.701Z,13.00
2023-04-26T09:48:17.670Z,13.04
2023-04-26T09:50:47.035Z,13.08
2023-04-26T09:53:30.180Z,13.05
2023-04-26T09:56:07.868Z,13.08
2023-04-26T09:58:36.708Z,13.17
2023-04-26T10:01:05.448Z,13.17
2023-04-26T10:03:35.614Z,13.07
2023-04-26T10:06:04.578Z,13.15
2023-04-26T10:08:33.144Z,13.18
2023-04-26T10:11:04.973Z,13.26
2023-04-26T10:13:33.444Z,13.31
2023-04-26T10:16:02.272Z,13.38
2023-04-26T10:18:31.070Z,13.45
2023-04-26T10:21:03.277Z,13.54
2023-04-26T10:23:31.857Z,13.61
2023-04-26T10:26:00.499Z,13.68
2023-04-26T10:29:02.060Z,13.69
2023-04-26T10:32:04.337Z,13.73
2023-04-26T10:34:34.656Z,13.77
2023-04-26T10:37:09.559Z,13.80
2023-04-26T10:39:38.760Z,13.84
2023-04-26T10:42:26.345Z,13.89
2023-04-26T10:44:56.704Z,13.85
2023-04-26T10:47:27.763Z,13.93
2023-04-26T10:50:05.817Z,13.85
2023-04-26T10:52:34.239Z,14.00
2023-04-26T10:55:02.715Z,14.09
2023-04-26T10:57:53.944Z,14.20
2023-04-26T11:00:33.225Z,14.22
2023-04-26T11:03:12.108Z,14.28
2023-04-26T11:05:51.845Z,14.22
2023-04-26T11:08:21.120Z,14.30
2023-04-26T11:10:54.096Z,14.32
2023-04-26T11:13:22.437Z,14.29
2023-04-26T11:15:55.793Z,14.33
2023-04-26T11:18:24.224Z,14.34
2023-04-26T11:20:52.209Z,14.35
2023-04-26T11:23:21.209Z,14.35
2023-04-26T11:25:49.708Z,14.31
2023-04-26T11:28:17.799Z,14.32
2023-04-26T11:30:45.753Z,14.33
2023-04-26T11:33:20.351Z,14.35
2023-04-26T11:35:48.985Z,14.33
2023-04-26T11:38:17.161Z,14.40
2023-04-26T11:40:45.970Z,14.44
2023-04-26T11:43:15.456Z,14.42
2023-04-26T11:45:43.368Z,14.53
2023-04-26T11:48:14.087Z,14.58
2023-04-26T11:50:43.490Z,14.64
2023-04-26T11:53:11.343Z,14.75
2023-04-26T11:55:42.293Z,14.67
2023-04-26T11:58:12.668Z,14.74
2023-04-26T12:00:59.540Z,14.96
2023-04-26T12:03:32.279Z,15.09
2023-04-26T12:06:02.748Z,15.03
2023-04-26T12:08:32.932Z,15.23
2023-04-26T12:11:02.832Z,15.31
2023-04-26T12:13:32.536Z,15.41
2023-04-26T12:16:00.413Z,15.47
2023-04-26T12:18:33.428Z,15.47
2023-04-26T12:21:02.810Z,15.51
2023-04-26T12:23:39.696Z,15.58
2023-04-26T12:26:10.736Z,15.63
2023-04-26T12:28:39.578Z,15.72
2023-04-26T12:31:07.696Z,15.82
2023-04-26T12:33:36.037Z,15.86
2023-04-26T12:36:14.218Z,16.00
2023-04-26T12:38:42.069Z,16.08
2023-04-26T12:41:09.987Z,16.14
2023-04-26T12:43:38.041Z,16.21
2023-04-26T12:46:06.104Z,16.26
2023-04-26T12:48:34.067Z,16.35
2023-04-26T12:51:02.344Z,16.39
2023-04-26T12:53:31.569Z,16.46
2023-04-26T12:55:59.814Z,16.50
2023-04-26T12:58:29.361Z,16.54
2023-04-26T13:00:57.199Z,16.55
2023-04-26T13:03:25.415Z,16.55
2023-04-26T13:05:54.040Z,16.50
2023-04-26T13:08:22.714Z,16.46
2023-04-26T13:10:52.419Z,16.42
2023-04-26T13:13:26.182Z,16.42
2023-04-26T13:15:57.276Z,16.33
2023-04-26T13:18:25.678Z,16.25
2023-04-26T13:20:54.161Z,16.08
2023-04-26T13:23:21.950Z,15.90
2023-04-26T13:25:51.717Z,15.84
2023-04-26T13:28:19.492Z,15.81
2023-04-26T13:30:47.584Z,15.78
2023-04-26T13:33:16.126Z,15.75
2023-04-26T13:35:44.023Z,15.64
2023-04-26T13:38:13.126Z,15.60
2023-04-26T13:40:41.786Z,15.52
2023-04-26T13:43:10.983Z,15.53
2023-04-26T13:45:38.904Z,15.55
2023-04-26T13:48:07.592Z,15.46
2023-04-26T13:50:36.959Z,15.48
2023-04-26T13:53:05.392Z,15.51
2023-04-26T13:55:33.667Z,15.50
2023-04-26T13:58:01.450Z,15.49
2023-04-26T14:00:30.646Z,15.18
2023-04-26T14:02:58.853Z,15.21
2023-04-26T14:05:26.803Z,15.34
2023-04-26T14:07:55.204Z,15.32
2023-04-26T14:10:23.573Z,15.41
2023-04-26T14:12:51.600Z,15.32
2023-04-26T14:15:19.374Z,15.40
2023-04-26T14:17:49.026Z,15.34
2023-04-26T14:20:16.709Z,15.54
2023-04-26T14:22:44.779Z,15.67
2023-04-26T14:25:12.760Z,15.72
2023-04-26T14:27:40.554Z,15.73
2023-04-26T14:30:09.251Z,15.77
2023-04-26T14:32:37.319Z,15.86
2023-04-26T14:35:07.373Z,15.96
2023-04-26T14:37:35.196Z,16.01
2023-04-26T14:40:03.319Z,16.11
2023-04-26T14:42:31.105Z,16.16
2023-04-26T14:44:59.848Z,16.25
2023-04-26T14:47:27.918Z,16.26
2023-04-26T14:49:55.935Z,16.34
2023-04-26T14:52:27.074Z,16.40
2023-04-26T14:54:54.994Z,16.20
2023-04-26T14:57:22.953Z,16.23
2023-04-26T14:59:50.874Z,16.33
2023-04-26T15:02:19.725Z,16.36
2023-04-26T15:04:47.735Z,16.37
2023-04-26T15:07:28.681Z,16.25
2023-04-26T15:10:01.792Z,16.22
2023-04-26T15:12:29.857Z,16.21
2023-04-26T15:14:57.715Z,16.14
2023-04-26T15:17:25.715Z,16.07
2023-04-26T15:19:53.496Z,16.07
2023-04-26T15:22:21.483Z,15.92
2023-04-26T15:24:51.195Z,15.74
2023-04-26T15:27:20.665Z,15.49
2023-04-26T15:29:48.418Z,15.63
2023-04-26T15:32:16.491Z,15.71
2023-04-26T15:34:45.189Z,15.67
2023-04-26T15:37:13.110Z,15.71
2023-04-26T15:39:41.295Z,15.77
2023-04-26T15:42:09.039Z,15.83
2023-04-26T15:44:38.244Z,15.90
2023-04-26T15:47:06.359Z,15.97
2023-04-26T15:49:34.174Z,16.04
2023-04-26T15:52:02.001Z,16.05
2023-04-26T15:54:29.992Z,16.19
2023-04-26T15:56:58.202Z,16.19
2023-04-26T15:59:26.400Z,16.27
2023-04-26T16:01:55.818Z,16.34
2023-04-26T16:04:23.922Z,16.36
2023-04-26T16:06:51.869Z,16.24
2023-04-26T16:11:51.445Z,16.22
2023-04-26T16:14:19.300Z,16.21
2023-04-26T16:16:47.631Z,16.24
2023-04-26T16:19:17.260Z,16.24
2023-04-26T16:21:44.871Z,16.25
2023-04-26T16:24:13.222Z,16.27
2023-04-26T16:26:41.339Z,16.25
2023-04-26T16:29:09.374Z,16.24
2023-04-26T16:31:37.750Z,16.26
2023-04-26T16:34:05.621Z,16.27
2023-04-26T16:36:35.475Z,15.99
2023-04-26T16:39:03.680Z,15.92
2023-04-26T16:41:31.446Z,16.00
2023-04-26T16:43:59.242Z,15.80
2023-04-26T16:46:27.667Z,15.85
2023-04-26T16:48:55.593Z,15.83
2023-04-26T16:51:23.519Z,15.68
2023-04-26T16:53:53.207Z,15.59
2023-04-26T16:56:20.854Z,15.69
2023-04-26T16:58:49.253Z,15.70
2023-04-26T17:01:17.741Z,15.53
2023-04-26T17:03:46.410Z,15.58
2023-04-26T17:06:14.415Z,15.54
2023-04-26T17:08:42.431Z,15.57
2023-04-26T17:11:15.192Z,15.57
2023-04-26T17:13:43.503Z,15.54
2023-04-26T17:16:12.024Z,15.50
2023-04-26T17:18:40.010Z,15.44
2023-04-26T17:21:08.030Z,15.40
2023-04-26T17:23:35.843Z,15.48
2023-04-26T17:26:04.237Z,15.53
2023-04-26T17:28:33.605Z,15.58
2023-04-26T17:31:01.559Z,15.62
2023-04-26T17:33:29.310Z,15.61
2023-04-26T17:35:57.481Z,15.61
2023-04-26T17:38:25.261Z,15.57
2023-04-26T17:40:54.531Z,15.49
2023-04-26T17:43:22.662Z,15.37
2023-04-26T17:45:51.820Z,15.39
2023-04-26T17:48:19.678Z,15.39
2023-04-26T17:50:47.726Z,15.36
2023-04-26T17:53:16.073Z,15.38
2023-04-26T17:55:44.064Z,15.36
2023-04-26T17:58:11.942Z,15.28
2023-04-26T18:00:39.704Z,15.25
2023-04-26T18:03:09.299Z,15.30
2023-04-26T18:05:36.948Z,15.24
2023-04-26T18:08:05.210Z,15.22
2023-04-26T18:10:33.007Z,15.27
2023-04-26T18:13:00.752Z,15.08
2023-04-26T18:15:28.570Z,15.06
2023-04-26T18:17:56.707Z,14.90
2023-04-26T18:20:26.050Z,14.88
2023-04-26T18:22:53.794Z,14.95
2023-04-26T18:25:21.936Z,14.89
2023-04-26T18:27:49.720Z,14.87
2023-04-26T18:30:18.281Z,14.80
2023-04-26T18:32:46.089Z,14.56
2023-04-26T18:35:14.072Z,14.63
2023-04-26T18:37:43.222Z,14.62
2023-04-26T18:40:12.108Z,14.61
2023-04-26T18:42:39.870Z,14.48
2023-04-26T18:45:09.444Z,14.44
2023-04-26T18:47:37.491Z,14.37
2023-04-26T18:50:06.068Z,14.43
2023-04-26T18:52:35.119Z,14.34
2023-04-26T18:55:04.655Z,14.29
2023-04-26T18:57:32.397Z,14.33
2023-04-26T19:00:00.273Z,14.20
2023-04-26T19:02:28.197Z,14.11
2023-04-26T19:04:56.149Z,14.09
2023-04-26T19:07:24.021Z,14.08
2023-04-26T19:09:54.688Z,14.11
2023-04-26T19:12:24.721Z,13.98
2023-04-26T19:14:52.775Z,13.90
2023-04-26T19:17:20.722Z,13.86
2023-04-26T19:19:51.591Z,13.76
2023-04-26T19:22:19.826Z,13.78
2023-04-26T19:24:49.647Z,13.65
2023-04-26T19:27:17.519Z,13.66
2023-04-26T19:29:46.932Z,13.63
2023-04-26T19:32:15.170Z,13.62
2023-04-26T19:34:43.374Z,13.60
2023-04-26T19:37:11.788Z,13.62
2023-04-26T19:39:39.618Z,13.59
2023-04-26T19:42:07.477Z,13.55
2023-04-26T19:44:35.724Z,13.52
2023-04-26T19:47:05.222Z,13.37
2023-04-26T19:49:33.197Z,13.35
2023-04-26T19:52:02.968Z,13.31
2023-04-26T19:54:32.054Z,13.33
2023-04-26T19:56:59.869Z,13.32
2023-04-26T19:59:28.192Z,13.36
2023-04-26T20:01:55.982Z,13.37
2023-04-26T20:04:25.772Z,13.37
2023-04-26T20:06:54.117Z,13.34
2023-04-26T20:09:21.937Z,13.31
2023-04-26T20:11:50.253Z,13.30
2023-04-26T20:14:18.476Z,13.24
2023-04-26T20:16:46.303Z,13.20
2023-04-26T20:19:16.830Z,13.21
2023-04-26T20:21:46.303Z,13.15
2023-04-26T20:24:15.023Z,13.17
2023-04-26T20:26:42.787Z,13.15
2023-04-26T20:29:10.768Z,13.13
2023-04-26T20:31:39.985Z,13.12
2023-04-26T20:34:07.807Z,13.12
2023-04-26T20:36:35.764Z,13.09
2023-04-26T20:39:05.246Z,13.10
2023-04-26T20:41:32.994Z,13.13
2023-04-26T20:44:01.107Z,13.11
2023-04-26T20:46:29.039Z,13.09
2023-04-26T20:48:56.875Z,13.08
2023-04-26T20:51:25.102Z,13.10
2023-04-26T20:53:52.879Z,13.10
2023-04-26T20:56:22.070Z,13.10
2023-04-26T20:58:50.056Z,13.10
2023-04-26T21:01:17.890Z,13.11
2023-04-26T21:03:45.878Z,13.10
2023-04-26T21:06:13.756Z,13.10
2023-04-26T21:08:42.984Z,13.10
2023-04-26T21:11:10.750Z,13.10
2023-04-26T21:13:40.131Z,13.10
2023-04-26T21:16:08.537Z,13.08
2023-04-26T21:18:36.427Z,13.07
2023-04-26T21:21:04.636Z,13.05
2023-04-26T21:23:33.178Z,13.04
2023-04-26T21:26:00.963Z,13.02
2023-04-26T21:28:29.508Z,13.01
2023-04-26T21:31:05.315Z,12.99
2023-04-26T21:33:34.666Z,12.93
2023-04-26T21:36:02.431Z,12.92
2023-04-26T21:38:30.204Z,12.88
2023-04-26T21:40:58.531Z,12.87
2023-04-26T21:43:26.340Z,12.84
2023-04-26T21:45:58.630Z,12.84
2023-04-26T21:48:27.906Z,12.81
2023-04-26T21:50:55.841Z,12.77
2023-04-26T21:53:24.177Z,12.74
2023-04-26T21:55:53.315Z,12.72
2023-04-26T21:58:21.599Z,12.69
2023-04-26T22:00:50.226Z,12.67
2023-04-26T22:03:18.572Z,12.64
2023-04-26T22:05:47.956Z,12.61
2023-04-26T22:08:16.464Z,12.58
2023-04-26T22:10:44.248Z,12.55
2023-04-26T22:13:12.056Z,12.51
2023-04-26T22:15:40.503Z,12.48
2023-04-26T22:18:08.490Z,12.44
2023-04-26T22:20:36.520Z,12.42
2023-04-26T22:23:06.192Z,12.37
2023-04-26T22:25:33.756Z,12.39
2023-04-26T22:28:03.150Z,12.35
2023-04-26T22:30:31.696Z,12.28
2023-04-26T22:32:59.793Z,12.23
2023-04-26T22:35:28.970Z,12.18
2023-04-26T22:37:57.418Z,12.14
2023-04-26T22:40:26.628Z,12.11
2023-04-26T22:42:54.580Z,12.07
2023-04-26T22:45:23.110Z,12.04
2023-04-26T22:47:51.003Z,12.02
2023-04-26T22:50:19.258Z,11.98
2023-04-26T22:52:47.758Z,11.93
2023-04-26T22:55:15.603Z,11.92
2023-04-26T22:57:44.736Z,11.90
2023-04-26T23:00:15.076Z,11.86
2023-04-26T23:02:43.404Z,11.84
2023-04-26T23:05:11.988Z,11.80
2023-04-26T23:07:41.184Z,11.78
2023-04-26T23:10:09.813Z,11.76
2023-04-26T23:12:37.646Z,11.72
2023-04-26T23:15:08.424Z,11.72
2023-04-26T23:17:36.269Z,11.66
2023-04-26T23:20:12.378Z,11.63
2023-04-26T23:22:41.380Z,11.61
2023-04-26T23:25:10.184Z,11.58
2023-04-26T23:27:39.311Z,11.56
2023-04-26T23:30:09.679Z,11.54
2023-04-26T23:32:37.543Z,11.51
2023-04-26T23:35:07.035Z,11.48
2023-04-26T23:37:34.893Z,11.45
2023-04-26T23:40:05.246Z,11.36
2023-04-26T23:42:33.509Z,11.38
2023-04-26T23:45:01.466Z,11.36
2023-04-26T23:47:31.985Z,11.34
2023-04-26T23:50:00.510Z,11.30
2023-04-26T23:52:28.633Z,11.27
2023-04-26T23:54:56.438Z,11.24
2023-04-26T23:57:24.582Z,11.21
2023-04-26T23:59:52.801Z,11.18
